• Join FlightAware (Why Join?)
  • Login
  • US Flag 
08:00AM EDT


 

Airport Tracker/Info


-or-


 

Live Flight TrackerFlight Track Log ✈ GUG717 ✈ 04-Oct-2013 ✈ MSLP / SAL - MNMG / MGA

Flight Track Log - Related Links

Times and Time Zones

All times are in EDT time to prevent confusion due to time zone crossing. See the GUG717 flight status page for this flight to view local times or setup timezone preferences in your user account.

Time Position Orientation Groundspeed Altitude Reporting Facility
EDT Latitude Longitude Course Direction KTS MPH feet Rate Location/Type
05:11PM 12.7435 -87.4936 114° Southeast  Level Estimated
05:12PM 12.7184 -87.4380 115° Southeast  Level Estimated
05:13PM 12.6933 -87.3823 115° Southeast  Level Estimated
05:14PM 12.6682 -87.3267 115° Southeast  Level Estimated
05:15PM 12.6431 -87.2711 115° Southeast  Level Estimated
05:16PM 12.6180 -87.2156 115° Southeast  Level Estimated
05:17PM 12.5928 -87.1600 115° Southeast  Level Estimated
05:18PM 12.5677 -87.1044 115° Southeast  Level Estimated
05:19PM 12.5425 -87.0489 115° Southeast  Level Estimated
05:20PM 12.5174 -86.9933 115° Southeast  Level Estimated
05:21PM 12.4922 -86.9378 115° Southeast  Level Estimated
05:22PM 12.4670 -86.8823 115° Southeast  Level Estimated
05:23PM 12.4418 -86.8268 115° Southeast  Level Estimated
05:24PM 12.4166 -86.7713 115° Southeast  Level Estimated
05:25PM 12.3913 -86.7158 115° Southeast  Level Estimated
05:26PM 12.3661 -86.6603 115° Southeast  Level Estimated
05:27PM 12.3408 -86.6048 115° Southeast  Level Estimated
05:28PM 12.3156 -86.5494 115° Southeast  Level Estimated
05:29PM 12.2903 -86.4939 115° Southeast  Level Estimated
05:30PM 12.2650 -86.4385 115° Southeast  Level Estimated
05:31PM 12.2397 -86.3831 115° Southeast  Level Estimated
05:32PM 12.2144 -86.3277 115° Southeast  Level Estimated
05:33PM 12.1891 -86.2723 115° Southeast  Level Estimated
05:34PM 12.1638 -86.2169 115° Southeast  Level Estimated
05:35PM 12.1415 -86.1682 115° Southeast  Level Estimated
05:36PM 12.1415 -86.1682 26° Northeast  Level Estimated
05:37PM 12.1415 -86.1682 26° Northeast  Level Estimated
05:38PM 12.1415 -86.1682 26° Northeast  Level Estimated
05:39PM 12.1415 -86.1682 26° Northeast  Level Estimated
05:40PM 12.1415 -86.1682 26° Northeast  Level Estimated
05:41PM 12.1415 -86.1682 26° Northeast  Level Estimated
05:42PM 12.1415 -86.1682 26° Northeast  Level Estimated
05:43PM 12.1415 -86.1682 26° Northeast  Level Estimated
05:44PM 12.1415 -86.1682 26° Northeast  Level Estimated
05:45PM 12.1415 -86.1682 26° Northeast  Level Estimated
05:46PM 12.1415 -86.1682 26° Northeast  Level Estimated
05:47PM 12.1415 -86.1682 26° Northeast  Level Estimated
05:48PM 12.1415 -86.1682 26° Northeast  Level Estimated
05:49PM 12.1415 -86.1682 26° Northeast  Level Estimated
05:50PM 12.1415 -86.1682 26° Northeast  Level Estimated
05:51PM 12.1415 -86.1682 26° Northeast  Level Estimated